Time;durP1;ratioP1;P1;durP2;ratioP2;P2;SDS_P1;SDS_P2;PMS_P1;PMS_P2;Temp;Humidity;BMP_temperature;BMP_pressure;BME280_temperature;BME280_humidity;BME280_pressure;Samples;Min_cycle;Max_cycle;Signal;HPM_P1;HPM_P2
2024/02/12 00:02:18;;;;;;;0.43;0.40;;;;;;;6.45;66.81;92649.88;5053539;28;20027;-71
2024/02/12 00:04:48;;;;;;;0.43;0.43;;;;;;;6.40;69.28;92653.47;5053245;28;20029;-70
2024/02/12 00:07:14;;;;;;;0.40;0.40;;;;;;;6.41;67.35;92644.44;5052808;28;20025;-72
2024/02/12 00:09:40;;;;;;;0.80;0.40;;;;;;;6.40;68.90;92631.56;5052805;28;20529;-72
2024/02/12 00:12:06;;;;;;;0.47;0.47;;;;;;;6.49;67.62;92634.16;5052977;28;20067;-72
2024/02/12 00:14:31;;;;;;;0.40;0.40;;;;;;;6.46;67.47;92625.00;5052477;28;20486;-72
2024/02/12 00:16:57;;;;;;;2.08;0.63;;;;;;;6.39;68.05;92606.22;5052838;28;20044;-72
2024/02/12 00:19:22;;;;;;;3.63;0.50;;;;;;;6.40;69.04;92611.22;5052530;28;20025;-72
2024/02/12 00:21:48;;;;;;;0.55;0.40;;;;;;;6.17;71.28;92601.16;5034621;28;20037;-71
2024/02/12 00:24:15;;;;;;;0.40;0.40;;;;;;;5.91;73.43;92599.34;5052755;28;20028;-72
2024/02/12 00:26:41;;;;;;;0.40;0.40;;;;;;;6.14;73.89;92607.03;5052860;28;20047;-72
2024/02/12 00:29:08;;;;;;;0.55;0.55;;;;;;;6.56;73.04;92603.53;5052583;28;20047;-72
2024/02/12 00:31:37;;;;;;;1.50;0.93;;;;;;;6.88;71.80;92598.72;5052042;28;20034;-71
2024/02/12 00:34:04;;;;;;;0.40;0.40;;;;;;;6.94;71.71;92629.97;5033853;28;20095;-72
2024/02/12 00:36:29;;;;;;;2.28;0.40;;;;;;;7.29;70.77;92635.81;5052157;28;20045;-72
2024/02/12 00:38:55;;;;;;;0.50;0.50;;;;;;;7.44;70.04;92648.47;5051853;28;20049;-71
2024/02/12 00:41:21;;;;;;;2.47;0.50;;;;;;;7.54;69.04;92624.28;5052502;28;20437;-72
2024/02/12 00:43:47;;;;;;;2.58;0.50;;;;;;;7.22;69.84;92632.91;5052358;28;20078;-72
2024/02/12 00:46:15;;;;;;;0.52;0.50;;;;;;;7.54;69.68;92620.88;5052169;28;20112;-72
2024/02/12 00:48:42;;;;;;;2.47;0.70;;;;;;;7.80;68.36;92618.84;5052313;28;20405;-72
2024/02/12 00:51:10;;;;;;;1.48;0.75;;;;;;;7.97;66.25;92617.94;5052085;28;20044;-72
2024/02/12 00:53:38;;;;;;;2.60;1.00;;;;;;;7.73;67.11;92629.94;5052528;28;20047;-72
2024/02/12 00:56:06;;;;;;;2.08;0.80;;;;;;;7.89;67.05;92642.59;5051954;28;20103;-72
2024/02/12 00:58:32;;;;;;;4.30;1.30;;;;;;;7.69;64.98;92618.44;5051817;28;20502;-72
2024/02/12 01:00:58;;;;;;;2.85;1.30;;;;;;;7.42;67.54;92637.47;5051624;28;20033;-71
2024/02/12 01:03:23;;;;;;;3.30;1.00;;;;;;;7.80;68.97;92636.59;5052024;28;20512;-72
2024/02/12 01:05:49;;;;;;;3.20;0.80;;;;;;;7.98;68.69;92624.75;5052079;28;20027;-71
2024/02/12 01:08:15;;;;;;;1.52;0.90;;;;;;;8.25;67.37;92640.09;5052347;28;20113;-72
2024/02/12 01:10:40;;;;;;;3.28;0.70;;;;;;;7.80;67.58;92628.66;5051580;28;20079;-71
2024/02/12 01:13:06;;;;;;;1.80;1.15;;;;;;;7.51;67.92;92622.31;5051707;28;20033;-71
2024/02/12 01:15:31;;;;;;;1.85;0.70;;;;;;;7.80;67.93;92621.50;5051743;28;20564;-73
2024/02/12 01:17:57;;;;;;;1.08;0.93;;;;;;;7.80;68.07;92604.84;5051725;28;20021;-71
2024/02/12 01:20:23;;;;;;;5.88;1.40;;;;;;;7.51;67.91;92598.50;5051827;28;20029;-72
2024/02/12 01:22:51;;;;;;;1.17;0.80;;;;;;;7.97;68.15;92623.97;5051715;28;20494;-72
2024/02/12 01:25:20;;;;;;;2.28;0.98;;;;;;;8.06;66.40;92622.06;5051609;28;20114;-72
2024/02/12 01:27:46;;;;;;;1.88;0.73;;;;;;;8.15;66.18;92619.31;5051344;28;20033;-72
2024/02/12 01:30:13;;;;;;;3.05;1.20;;;;;;;8.32;65.94;92621.00;5051532;28;20024;-71
2024/02/12 01:32:39;;;;;;;1.92;0.80;;;;;;;8.40;66.43;92633.41;5051867;28;20021;-72
2024/02/12 01:35:05;;;;;;;2.45;0.85;;;;;;;8.62;65.19;92640.97;5051003;28;20095;-72
2024/02/12 01:37:32;;;;;;;3.10;0.88;;;;;;;8.62;65.09;92634.88;5051025;28;20087;-72
2024/02/12 01:39:58;;;;;;;5.72;1.88;;;;;;;8.57;65.62;92636.66;5050797;28;20045;-72
2024/02/12 01:42:23;;;;;;;3.17;1.50;;;;;;;8.49;66.11;92634.09;5033052;28;20086;-72
2024/02/12 01:45:17;;;;;;;1.20;0.80;;;;;;;8.24;67.72;92638.53;5051004;28;20398;-71
2024/02/12 01:47:46;;;;;;;4.65;1.00;;;;;;;8.11;68.65;92627.16;5051375;28;20109;-72
2024/02/12 01:50:13;;;;;;;2.03;1.27;;;;;;;7.96;69.25;92624.31;5051108;28;20048;-72
2024/02/12 01:52:40;;;;;;;4.95;1.38;;;;;;;8.19;68.62;92622.84;5050406;28;20502;-72
2024/02/12 01:55:07;;;;;;;3.80;1.20;;;;;;;8.10;68.58;92616.88;5050953;28;20409;-71
2024/02/12 01:57:36;;;;;;;1.67;1.30;;;;;;;8.25;67.88;92607.53;5050766;28;20510;-72
2024/02/12 02:00:04;;;;;;;6.88;1.70;;;;;;;8.39;67.20;92611.44;5050457;28;20029;-72
2024/02/12 02:02:30;;;;;;;11.48;1.98;;;;;;;8.48;66.71;92604.16;5051207;28;20017;-72
2024/02/12 02:04:55;;;;;;;6.70;2.28;;;;;;;8.47;66.32;92607.91;5050735;28;20044;-72
2024/02/12 02:07:21;;;;;;;4.80;2.47;;;;;;;8.08;67.51;92592.56;5032997;28;20037;-71
2024/02/12 02:09:47;;;;;;;5.40;2.70;;;;;;;7.79;68.31;92585.53;5050767;28;20041;-71
2024/02/12 02:12:14;;;;;;;5.47;2.40;;;;;;;8.23;67.38;92599.91;5050626;28;20033;-72
2024/02/12 02:14:42;;;;;;;9.85;2.47;;;;;;;8.32;66.67;92565.38;5050478;28;20047;-72
2024/02/12 02:17:08;;;;;;;10.30;2.90;;;;;;;8.53;65.98;92587.28;5050448;28;20029;-71
2024/02/12 02:19:34;;;;;;;8.80;2.58;;;;;;;8.45;65.89;92570.41;5050331;28;20043;-71
2024/02/12 02:21:59;;;;;;;8.82;2.97;;;;;;;8.52;65.17;92594.47;5050465;28;20037;-72
2024/02/12 02:24:25;;;;;;;3.85;2.75;;;;;;;8.44;65.44;92595.34;5050348;28;20052;-72
2024/02/12 02:26:52;;;;;;;11.40;3.53;;;;;;;8.28;65.10;92573.22;5050168;28;20033;-72
2024/02/12 02:29:18;;;;;;;7.35;3.60;;;;;;;8.53;64.75;92619.84;5050627;28;20020;-71
2024/02/12 02:31:44;;;;;;;8.95;3.05;;;;;;;7.80;64.94;92586.31;5050295;28;20117;-72
2024/02/12 02:34:09;;;;;;;7.47;4.15;;;;;;;7.55;68.17;92633.78;5049927;28;20311;-72
2024/02/12 02:36:35;;;;;;;14.77;4.68;;;;;;;7.55;68.13;92631.13;5050158;28;20037;-71
2024/02/12 02:39:03;;;;;;;11.02;4.55;;;;;;;7.22;69.30;92632.91;5050006;28;20041;-71
2024/02/12 02:41:30;;;;;;;7.50;4.10;;;;;;;7.74;67.40;92636.00;5051359;28;20020;-72
2024/02/12 02:43:56;;;;;;;7.40;3.97;;;;;;;7.78;66.36;92631.63;5050062;28;20048;-72
2024/02/12 02:46:28;;;;;;;7.10;4.00;;;;;;;6.26;72.17;92634.38;5049913;28;20545;-72
2024/02/12 02:48:55;;;;;;;9.70;5.22;;;;;;;6.35;73.14;92634.38;5050221;28;20029;-72
2024/02/12 02:51:27;;;;;;;10.50;3.50;;;;;;;6.93;71.81;92632.91;5032151;28;20116;-71
2024/02/12 02:53:54;;;;;;;7.18;4.60;;;;;;;7.27;70.24;92632.72;5031938;28;20055;-72
2024/02/12 02:56:21;;;;;;;6.57;3.90;;;;;;;7.56;69.38;92645.16;5050216;28;20498;-71
2024/02/12 02:58:47;;;;;;;10.38;5.45;;;;;;;7.66;68.42;92640.25;5049842;28;20044;-72
2024/02/12 03:01:13;;;;;;;5.50;3.65;;;;;;;7.28;69.64;92629.78;5049811;28;20033;-71
2024/02/12 03:03:39;;;;;;;6.93;3.70;;;;;;;7.46;69.92;92643.66;5049680;28;20097;-71
2024/02/12 03:06:05;;;;;;;4.95;3.38;;;;;;;7.17;68.96;92612.72;5049889;28;20487;-72
2024/02/12 03:08:34;;;;;;;6.78;2.05;;;;;;;6.57;71.99;92615.66;5050413;28;20021;-72
2024/02/12 03:11:01;;;;;;;5.68;2.13;;;;;;;6.00;74.80;92610.66;5049956;28;20303;-71
2024/02/12 03:13:27;;;;;;;7.25;2.72;;;;;;;6.70;73.53;92606.72;5032036;28;20090;-71
2024/02/12 03:15:53;;;;;;;8.82;2.55;;;;;;;7.19;71.31;92621.09;5032073;28;20449;-71
2024/02/12 03:18:20;;;;;;;13.10;4.55;;;;;;;7.43;69.78;92604.63;5049792;28;20033;-71
2024/02/12 03:20:52;;;;;;;7.43;2.85;;;;;;;7.71;68.11;92605.66;5049625;28;20108;-70
2024/02/12 03:23:18;;;;;;;9.35;3.58;;;;;;;7.39;68.68;92597.63;5050327;28;20386;-71
2024/02/12 03:25:43;;;;;;;3.97;2.63;;;;;;;7.30;70.66;92593.19;5049756;28;20041;-72
2024/02/12 03:28:09;;;;;;;4.15;2.80;;;;;;;7.67;69.34;92591.53;5049802;28;20034;-71
2024/02/12 03:30:34;;;;;;;4.97;2.92;;;;;;;7.32;70.23;92582.28;5031434;28;20261;-72
2024/02/12 03:33:02;;;;;;;4.78;3.20;;;;;;;6.73;71.78;92539.28;5049609;28;20474;-72
2024/02/12 03:35:28;;;;;;;7.65;4.35;;;;;;;6.10;75.05;92546.19;5050597;28;20025;-71
2024/02/12 03:37:53;;;;;;;8.95;3.80;;;;;;;5.55;77.71;92539.00;5049540;28;20029;-71
2024/02/12 03:40:21;;;;;;;5.43;3.80;;;;;;;5.83;77.71;92523.59;5049601;28;20583;-71
2024/02/12 03:42:49;;;;;;;6.75;3.75;;;;;;;5.84;76.92;92545.47;5049544;28;20033;-71
2024/02/12 03:45:15;;;;;;;12.05;5.22;;;;;;;5.52;77.70;92523.03;5049634;28;20517;-71
2024/02/12 03:47:41;;;;;;;12.98;6.78;;;;;;;5.50;78.40;92509.38;5050048;28;20035;-71
2024/02/12 04:01:14;;;;;;;8.77;4.05;;;;;;;5.50;80.36;92514.66;5049676;28;20048;-71
2024/02/12 04:03:40;;;;;;;9.52;5.60;;;;;;;5.57;77.67;92451.69;5049513;28;20035;-72
2024/02/12 04:06:07;;;;;;;16.17;6.57;;;;;;;5.20;79.16;92463.66;5049234;28;20663;-72
2024/02/12 04:08:34;;;;;;;8.88;4.20;;;;;;;5.55;78.40;92438.03;5052004;28;20017;-71
2024/02/12 04:10:59;;;;;;;6.55;4.00;;;;;;;6.24;76.75;92432.50;5052592;28;20033;-71
2024/02/12 04:13:26;;;;;;;9.00;4.03;;;;;;;6.73;73.96;92423.81;5053020;28;20043;-71
2024/02/12 04:15:54;;;;;;;7.93;3.35;;;;;;;6.85;72.39;92397.44;5052978;28;20029;-71
2024/02/12 04:18:20;;;;;;;6.80;3.28;;;;;;;7.03;71.54;92426.38;5052889;28;20033;-72
2024/02/12 04:20:49;;;;;;;14.75;4.22;;;;;;;6.96;70.83;92426.09;5052900;28;20234;-71
2024/02/12 04:23:15;;;;;;;7.75;2.72;;;;;;;7.16;70.23;92446.47;5052996;28;20047;-72
2024/02/12 04:25:40;;;;;;;6.70;2.83;;;;;;;7.34;69.19;92487.53;5052196;28;20040;-70
2024/02/12 04:28:09;;;;;;;5.43;2.45;;;;;;;7.46;68.31;92511.41;5052885;28;20040;-72
2024/02/12 04:30:35;;;;;;;6.63;2.97;;;;;;;7.38;68.43;92504.31;5052325;28;20033;-72
2024/02/12 04:33:00;;;;;;;19.58;2.75;;;;;;;7.38;65.87;92485.81;5052620;28;20100;-70
2024/02/12 04:35:26;;;;;;;23.38;3.70;;;;;;;6.99;65.24;92478.34;5053224;28;20009;-70
2024/02/12 04:37:52;;;;;;;23.88;3.35;;;;;;;6.52;66.59;92465.25;5052567;28;20095;-71
2024/02/12 04:40:18;;;;;;;12.35;3.15;;;;;;;6.77;68.99;92480.19;5052106;28;20073;-72
2024/02/12 04:42:43;;;;;;;7.53;2.90;;;;;;;6.81;69.44;92494.28;5052263;28;20029;-72
2024/02/12 04:45:10;;;;;;;34.08;5.75;;;;;;;6.49;66.30;92473.06;5052584;28;20425;-72
2024/02/12 04:47:36;;;;;;;25.35;5.13;;;;;;;6.44;66.29;92495.16;5052366;28;20082;-72
2024/02/12 04:50:01;;;;;;;29.23;5.15;;;;;;;6.37;66.07;92492.22;5052318;28;20124;-71
2024/02/12 04:52:26;;;;;;;32.53;5.25;;;;;;;6.20;66.40;92487.03;5051919;28;20096;-71
2024/02/12 04:54:53;;;;;;;26.45;3.35;;;;;;;5.96;66.80;92469.88;5051807;28;20033;-71
2024/02/12 04:57:18;;;;;;;28.80;3.38;;;;;;;6.01;66.24;92461.00;5051805;28;20021;-71
2024/02/12 04:59:44;;;;;;;24.58;3.38;;;;;;;5.93;66.52;92462.56;5052821;28;20366;-71
2024/02/12 05:02:09;;;;;;;25.05;3.10;;;;;;;6.09;68.23;92465.47;5052037;28;20608;-71
2024/02/12 05:04:35;;;;;;;23.15;5.00;;;;;;;5.96;68.42;92485.69;5052120;28;20033;-71
2024/02/12 05:07:01;;;;;;;26.63;3.97;;;;;;;5.89;68.48;92474.06;5051370;28;20044;-71
2024/02/12 05:09:26;;;;;;;24.77;5.75;;;;;;;6.08;69.25;92497.44;5051775;28;20037;-71
2024/02/12 05:11:52;;;;;;;34.97;5.38;;;;;;;5.93;70.21;92501.38;5051562;28;20027;-70
2024/02/12 05:14:23;;;;;;;22.25;4.40;;;;;;;6.36;69.02;92515.22;5051997;28;20021;-71
2024/02/12 05:16:48;;;;;;;30.23;5.47;;;;;;;6.60;68.78;92529.72;5051646;28;20029;-71
2024/02/12 05:24:41;;;;;;;29.00;10.32;;;;;;;5.54;71.29;92499.75;5051694;28;20056;-71
2024/02/12 05:27:07;;;;;;;17.35;4.95;;;;;;;6.27;70.65;92532.94;5050937;28;20537;-70
2024/02/12 05:29:33;;;;;;;33.22;5.15;;;;;;;6.25;69.33;92494.78;5052127;28;20057;-71
2024/02/12 05:31:58;;;;;;;51.38;7.25;;;;;;;6.31;70.68;92531.22;5051089;28;20037;-70
2024/02/12 05:34:24;;;;;;;29.05;6.22;;;;;;;6.29;70.84;92511.53;5051354;28;20037;-70
2024/02/12 05:36:56;;;;;;;22.23;3.65;;;;;;;6.72;69.02;92516.59;5051447;28;20029;-71
2024/02/12 05:39:21;;;;;;;28.85;4.40;;;;;;;7.04;67.94;92536.31;5050950;28;20083;-71
2024/02/12 05:41:47;;;;;;;22.20;4.15;;;;;;;7.13;68.25;92545.72;5049842;28;20107;-71
2024/02/12 05:44:13;;;;;;;21.50;6.05;;;;;;;7.27;67.67;92548.09;5050197;28;20103;-71
2024/02/12 05:46:41;;;;;;;19.73;4.90;;;;;;;7.24;67.58;92546.09;5050149;28;20109;-71
2024/02/12 05:49:07;;;;;;;17.30;4.13;;;;;;;7.23;67.64;92552.50;5032616;28;20033;-72
2024/02/12 05:51:33;;;;;;;23.15;5.25;;;;;;;7.41;67.03;92548.63;5049491;28;20041;-71
2024/02/12 05:54:00;;;;;;;24.33;8.40;;;;;;;7.52;66.52;92557.72;5050501;28;20059;-71
2024/02/12 05:56:26;;;;;;;22.63;7.43;;;;;;;7.20;67.46;92559.19;5051106;28;20025;-71
2024/02/12 05:58:51;;;;;;;22.85;4.40;;;;;;;6.76;68.71;92534.13;5050635;28;20040;-71
2024/02/12 06:01:17;;;;;;;21.10;5.38;;;;;;;7.11;68.33;92544.47;5050885;28;20402;-72
2024/02/12 06:03:42;;;;;;;19.52;4.85;;;;;;;7.32;66.72;92547.91;5050991;28;20033;-71
2024/02/12 06:06:08;;;;;;;13.98;4.57;;;;;;;7.57;66.14;92557.53;5051008;28;20025;-72
2024/02/12 06:08:33;;;;;;;25.98;5.50;;;;;;;7.53;65.90;92543.38;5051368;28;20033;-72
2024/02/12 06:10:58;;;;;;;23.80;7.32;;;;;;;7.50;66.18;92554.63;5050505;28;20037;-71
2024/02/12 06:13:24;;;;;;;24.75;7.50;;;;;;;7.67;65.66;92561.66;5050479;28;20037;-72
2024/02/12 06:15:50;;;;;;;22.23;6.90;;;;;;;7.52;65.59;92555.06;5050540;28;20040;-72
2024/02/12 06:18:15;;;;;;;25.27;11.30;;;;;;;7.66;65.85;92558.22;5050410;28;20559;-71
2024/02/12 06:20:41;;;;;;;19.25;10.23;;;;;;;7.73;65.94;92561.13;5051333;28;20473;-72
2024/02/12 06:23:07;;;;;;;25.27;9.63;;;;;;;7.98;64.22;92555.91;5050569;28;20421;-71
2024/02/12 06:25:33;;;;;;;21.95;7.90;;;;;;;7.83;64.25;92520.25;5049969;28;20438;-71
2024/02/12 06:27:59;;;;;;;24.25;10.05;;;;;;;7.55;65.53;92525.31;5050405;28;20037;-72
2024/02/12 06:30:24;;;;;;;21.65;10.23;;;;;;;7.49;66.45;92526.59;5049474;28;20029;-71
2024/02/12 06:32:50;;;;;;;20.30;8.40;;;;;;;7.69;65.67;92528.44;5050594;28;20543;-71
2024/02/12 06:35:16;;;;;;;22.00;5.45;;;;;;;7.76;64.66;92519.25;5050831;28;20021;-71
2024/02/12 06:37:46;;;;;;;22.08;5.70;;;;;;;7.41;66.06;92511.59;5050044;28;20059;-71
2024/02/12 06:40:12;;;;;;;24.67;6.22;;;;;;;7.44;66.49;92499.56;5049837;28;20048;-72
2024/02/12 06:42:37;;;;;;;29.42;5.35;;;;;;;7.38;65.94;92514.91;5049988;28;20037;-72
2024/02/12 06:45:03;;;;;;;28.50;7.25;;;;;;;7.60;65.62;92514.53;5050111;28;20031;-71
2024/02/12 06:47:29;;;;;;;15.75;4.78;;;;;;;7.21;65.83;92507.09;5050159;28;20024;-71
2024/02/12 06:49:55;;;;;;;13.75;6.03;;;;;;;6.74;67.62;92509.13;5050266;28;20033;-71
2024/02/12 06:52:20;;;;;;;15.68;6.72;;;;;;;6.45;68.79;92491.41;5050267;28;20048;-71
2024/02/12 06:54:47;;;;;;;18.55;5.18;;;;;;;6.59;68.75;92512.31;5050112;28;20036;-71
2024/02/12 06:57:14;;;;;;;19.55;4.68;;;;;;;6.82;68.53;92516.22;5049747;28;20039;-71
2024/02/12 06:59:42;;;;;;;15.02;3.90;;;;;;;7.08;67.63;92503.63;5049198;28;20382;-71
2024/02/12 07:02:08;;;;;;;17.17;5.10;;;;;;;6.84;68.21;92503.47;5049952;28;20175;-72
2024/02/12 07:04:34;;;;;;;19.10;6.43;;;;;;;6.92;68.37;92504.50;5049730;28;20120;-72
2024/02/12 07:07:00;;;;;;;21.50;6.60;;;;;;;6.71;68.82;92499.19;5049863;28;20040;-72
2024/02/12 07:09:25;;;;;;;14.27;8.13;;;;;;;6.75;70.17;92516.72;5050143;28;20048;-72
2024/02/12 07:11:51;;;;;;;24.25;7.88;;;;;;;6.08;72.24;92508.00;5049615;28;20074;-71
2024/02/12 07:14:17;;;;;;;17.42;5.82;;;;;;;6.35;71.30;92512.91;5050172;28;20044;-72
2024/02/12 07:16:42;;;;;;;16.75;6.80;;;;;;;5.79;74.23;92517.41;5049426;28;20039;-72
2024/02/12 07:19:08;;;;;;;19.75;6.93;;;;;;;6.20;73.42;92535.31;5038913;28;20037;-72
2024/02/12 07:21:33;;;;;;;25.90;9.40;;;;;;;6.03;72.79;92501.03;5049253;28;20033;-72
2024/02/12 07:23:59;;;;;;;27.13;10.23;;;;;;;5.58;74.24;92511.22;5049604;28;20122;-72
2024/02/12 07:26:25;;;;;;;29.35;10.73;;;;;;;5.57;74.32;92515.75;5050082;28;20025;-72
2024/02/12 07:28:50;;;;;;;21.48;11.32;;;;;;;5.61;75.05;92529.06;5049585;28;20047;-72
2024/02/12 07:31:16;;;;;;;18.83;9.27;;;;;;;5.60;74.19;92522.25;5049036;28;20037;-72
2024/02/12 07:33:41;;;;;;;24.13;10.73;;;;;;;5.53;74.76;92522.72;5049483;28;20056;-72
2024/02/12 07:36:08;;;;;;;21.10;9.93;;;;;;;5.93;74.69;92523.25;5049596;28;20533;-72
2024/02/12 07:38:33;;;;;;;17.48;9.68;;;;;;;6.38;73.33;92525.47;5049607;28;20409;-72
2024/02/12 07:41:00;;;;;;;18.15;9.25;;;;;;;6.75;71.64;92540.50;5049438;28;20119;-72
2024/02/12 07:43:27;;;;;;;21.52;8.95;;;;;;;6.54;71.80;92537.03;5053202;28;20112;-72
2024/02/12 07:45:53;;;;;;;22.15;9.00;;;;;;;6.73;71.40;92555.13;5053197;28;20036;-72
2024/02/12 07:48:19;;;;;;;20.85;8.57;;;;;;;6.52;71.02;92544.50;5053337;28;20029;-72
2024/02/12 07:50:45;;;;;;;24.92;10.75;;;;;;;6.13;72.66;92552.69;5053252;28;20544;-72
2024/02/12 07:53:11;;;;;;;16.20;11.48;;;;;;;6.38;73.46;92565.06;5053504;28;20029;-72
2024/02/12 07:55:36;;;;;;;26.08;12.60;;;;;;;6.47;72.65;92563.16;5053176;28;20037;-72
2024/02/12 07:58:02;;;;;;;21.25;13.23;;;;;;;6.08;73.95;92561.56;5053087;28;20079;-72
2024/02/12 08:00:28;;;;;;;23.42;12.80;;;;;;;6.34;74.23;92569.44;5053035;28;20509;-72
2024/02/12 08:02:54;;;;;;;22.80;12.73;;;;;;;6.13;74.33;92568.53;5053369;28;20032;-71
2024/02/12 08:05:21;;;;;;;25.88;11.20;;;;;;;6.02;74.64;92578.63;5053721;28;20056;-71
2024/02/12 08:07:46;;;;;;;35.20;13.60;;;;;;;6.12;73.76;92582.81;5052676;28;20036;-72
2024/02/12 08:10:13;;;;;;;23.90;10.57;;;;;;;5.49;75.40;92582.44;5052648;28;20033;-72
2024/02/12 08:12:40;;;;;;;19.55;11.50;;;;;;;5.03;77.33;92590.94;5052389;28;20029;-71
2024/02/12 08:15:06;;;;;;;32.53;11.82;;;;;;;5.18;77.71;92591.59;5052555;28;20039;-72
2024/02/12 08:17:32;;;;;;;25.80;11.68;;;;;;;5.37;77.41;92599.97;5053260;28;20029;-72
2024/02/12 08:19:57;;;;;;;18.77;11.63;;;;;;;5.72;76.70;92601.53;5052271;28;20116;-72
2024/02/12 08:22:23;;;;;;;29.48;11.77;;;;;;;5.37;77.62;92594.69;5034628;28;20112;-72
2024/02/12 08:24:49;;;;;;;23.92;11.27;;;;;;;5.37;77.20;92590.19;5052582;28;20053;-72
2024/02/12 08:27:16;;;;;;;22.17;12.27;;;;;;;5.73;76.83;92618.88;5052428;28;20037;-72
2024/02/12 08:29:41;;;;;;;28.13;11.57;;;;;;;5.87;76.38;92611.56;5052357;28;20021;-72
2024/02/12 08:32:06;;;;;;;23.80;13.95;;;;;;;5.72;76.77;92606.03;5051829;28;20438;-72
2024/02/12 08:34:32;;;;;;;29.73;16.80;;;;;;;5.51;77.50;92590.81;5052444;28;20029;-71
2024/02/12 08:36:57;;;;;;;32.10;17.30;;;;;;;5.44;78.43;92605.53;5051964;28;20037;-71
2024/02/12 08:39:23;;;;;;;31.17;15.10;;;;;;;5.27;77.83;92605.53;5052177;28;20525;-71
2024/02/12 08:41:49;;;;;;;32.47;16.13;;;;;;;5.12;78.89;92620.72;5052706;28;20513;-72
2024/02/12 08:44:15;;;;;;;32.85;16.05;;;;;;;4.84;79.59;92595.72;5052730;28;20075;-71
2024/02/12 08:46:41;;;;;;;20.30;13.55;;;;;;;5.10;78.90;92625.50;5052151;28;20431;-71
2024/02/12 08:49:06;;;;;;;24.75;13.75;;;;;;;4.93;79.99;92616.78;5052152;28;20090;-71
2024/02/12 08:51:32;;;;;;;32.80;13.40;;;;;;;4.85;79.69;92614.91;5052071;28;20033;-71
2024/02/12 08:53:59;;;;;;;24.58;13.25;;;;;;;5.00;79.17;92622.38;5051268;28;20497;-72
2024/02/12 08:56:28;;;;;;;26.05;13.88;;;;;;;5.10;79.28;92625.50;5052856;28;20036;-70
2024/02/12 08:58:55;;;;;;;25.85;12.02;;;;;;;5.24;78.73;92629.88;5051897;28;20059;-71
2024/02/12 09:01:21;;;;;;;21.25;12.02;;;;;;;5.08;79.20;92617.16;5051992;28;20021;-71
2024/02/12 09:03:47;;;;;;;28.73;10.80;;;;;;;4.93;79.44;92598.34;5052196;28;20128;-70
2024/02/12 09:06:13;;;;;;;19.08;10.30;;;;;;;5.51;79.07;92597.97;5051733;28;20124;-71
2024/02/12 09:08:41;;;;;;;21.02;9.82;;;;;;;5.51;77.99;92584.78;5051835;28;20107;-71
2024/02/12 09:11:07;;;;;;;22.52;9.40;;;;;;;5.90;77.87;92603.06;5051430;28;20094;-72
2024/02/12 09:13:34;;;;;;;26.80;9.65;;;;;;;5.96;76.97;92595.75;5051559;28;20407;-71
2024/02/12 09:15:59;;;;;;;23.70;10.52;;;;;;;5.75;76.34;92561.31;5051744;28;20037;-71
2024/02/12 09:18:28;;;;;;;19.75;9.27;;;;;;;6.12;77.15;92603.94;5051546;28;20040;-71
2024/02/12 09:20:56;;;;;;;24.00;10.38;;;;;;;6.09;76.04;92583.44;5051781;28;20025;-71
2024/02/12 09:23:22;;;;;;;31.60;11.43;;;;;;;5.94;76.70;92598.69;5051727;28;20036;-71
2024/02/12 09:25:51;;;;;;;17.77;9.10;;;;;;;6.11;75.98;92597.13;5051528;28;20241;-72
2024/02/12 09:28:17;;;;;;;17.02;8.80;;;;;;;6.24;75.59;92567.91;5051477;28;20037;-71
2024/02/12 09:30:45;;;;;;;23.63;10.18;;;;;;;6.54;74.07;92568.75;5051097;28;20040;-71
2024/02/12 09:33:12;;;;;;;22.33;9.38;;;;;;;6.54;74.05;92584.59;5046244;28;20222;-71
2024/02/12 09:35:37;;;;;;;22.08;9.02;;;;;;;6.20;75.92;92571.50;5051653;28;20525;-71
2024/02/12 09:38:03;;;;;;;14.80;9.35;;;;;;;6.23;75.03;92576.13;5050931;28;20115;-71
2024/02/12 09:40:33;;;;;;;25.27;10.90;;;;;;;6.23;75.30;92562.94;5050805;28;20151;-71
2024/02/12 09:42:59;;;;;;;20.75;9.68;;;;;;;6.52;75.04;92551.66;5050931;28;20057;-71
2024/02/12 09:45:27;;;;;;;15.90;8.60;;;;;;;6.61;72.93;92570.88;5051146;28;20049;-71
2024/02/12 09:47:54;;;;;;;23.65;10.48;;;;;;;6.61;74.11;92545.22;5033179;28;20024;-71
2024/02/12 09:50:22;;;;;;;19.55;8.45;;;;;;;6.65;73.37;92563.88;5051763;28;20021;-70
2024/02/12 09:52:49;;;;;;;15.75;8.20;;;;;;;7.13;71.91;92563.44;5050018;28;20041;-71
2024/02/12 09:55:17;;;;;;;17.42;7.82;;;;;;;7.29;72.38;92564.41;5049503;28;20503;-71
2024/02/12 09:57:43;;;;;;;17.33;8.25;;;;;;;6.94;71.19;92534.03;5033307;28;20052;-71
2024/02/12 10:00:12;;;;;;;24.77;8.30;;;;;;;7.21;70.72;92565.25;5050706;28;20033;-71
2024/02/12 10:02:39;;;;;;;18.55;7.40;;;;;;;7.64;70.65;92557.75;5050969;28;20511;-71
2024/02/12 10:05:10;;;;;;;18.95;7.00;;;;;;;7.68;67.43;92515.53;5050127;28;20033;-71
2024/02/12 10:07:39;;;;;;;27.98;7.20;;;;;;;8.10;65.76;92550.69;5050427;28;20082;-71
2024/02/12 10:10:06;;;;;;;21.00;5.30;;;;;;;7.65;64.20;92521.50;5049929;28;20037;-71
2024/02/12 10:12:32;;;;;;;14.25;5.43;;;;;;;7.36;65.98;92540.88;5050130;28;20128;-71
2024/02/12 10:14:58;;;;;;;22.52;4.47;;;;;;;8.05;61.30;92541.06;5050109;28;20112;-71
2024/02/12 10:17:23;;;;;;;22.50;7.50;;;;;;;8.10;61.78;92518.91;5051203;28;20108;-72
2024/02/12 10:19:49;;;;;;;24.88;6.20;;;;;;;8.20;63.54;92521.13;5050508;28;20491;-72
2024/02/12 10:22:16;;;;;;;16.98;5.25;;;;;;;7.99;63.75;92531.78;5050628;28;20144;-71
2024/02/12 10:24:41;;;;;;;23.70;3.92;;;;;;;7.75;59.31;92520.34;5050471;28;20043;-71
2024/02/12 10:27:07;;;;;;;16.85;3.30;;;;;;;8.28;56.17;92544.09;5050717;28;20100;-71
2024/02/12 10:29:35;;;;;;;20.80;3.20;;;;;;;8.54;56.82;92547.22;5050990;28;20021;-71
2024/02/12 10:32:01;;;;;;;23.20;3.53;;;;;;;8.57;56.57;92545.78;5050058;28;20033;-71
2024/02/12 10:34:29;;;;;;;18.38;3.40;;;;;;;8.79;53.87;92541.91;5050195;28;20099;-71
2024/02/12 10:36:56;;;;;;;10.63;2.35;;;;;;;9.00;53.03;92534.59;5050234;28;20035;-72
2024/02/12 10:39:22;;;;;;;18.77;2.35;;;;;;;9.23;51.22;92514.50;5050067;28;20052;-72
2024/02/12 10:41:50;;;;;;;15.52;2.45;;;;;;;9.15;53.24;92522.56;5050157;28;20017;-71
2024/02/12 10:44:19;;;;;;;18.98;2.17;;;;;;;9.17;52.04;92499.91;5050954;28;20025;-72
2024/02/12 10:46:46;;;;;;;16.45;2.20;;;;;;;9.31;51.55;92492.34;5050288;28;20037;-71
2024/02/12 10:49:14;;;;;;;10.60;1.95;;;;;;;9.38;49.60;92489.91;5050243;28;20037;-71
2024/02/12 10:51:40;;;;;;;14.57;3.70;;;;;;;9.29;53.01;92486.59;5049860;28;20123;-71
2024/02/12 10:54:07;;;;;;;17.73;2.22;;;;;;;9.31;50.52;92463.19;5050064;28;20118;-71
2024/02/12 10:56:34;;;;;;;19.58;2.30;;;;;;;9.30;50.61;92443.06;5050436;28;20052;-72
2024/02/12 10:58:59;;;;;;;13.55;2.00;;;;;;;9.36;50.74;92459.50;5049666;28;20044;-71
2024/02/12 11:01:27;;;;;;;13.95;3.25;;;;;;;9.24;49.91;92460.31;5049796;28;20037;-71
2024/02/12 11:03:53;;;;;;;16.52;3.17;;;;;;;9.12;50.29;92467.53;5049601;28;20051;-72
2024/02/12 11:06:18;;;;;;;8.23;2.25;;;;;;;9.04;50.80;92453.28;5049839;28;20490;-71
2024/02/12 11:08:48;;;;;;;13.02;2.20;;;;;;;9.01;50.97;92444.13;5050205;28;20585;-71
2024/02/12 11:11:15;;;;;;;8.65;2.70;;;;;;;9.28;51.64;92476.34;5050094;28;20037;-72
2024/02/12 11:13:44;;;;;;;16.63;2.65;;;;;;;9.25;50.58;92451.25;5049362;28;20037;-72
2024/02/12 11:16:15;;;;;;;10.35;3.03;;;;;;;9.38;51.14;92452.78;5049135;28;20032;-71
2024/02/12 11:18:41;;;;;;;13.18;2.35;;;;;;;9.53;49.84;92469.06;5053872;28;20102;-71
2024/02/12 11:21:08;;;;;;;13.30;2.50;;;;;;;9.54;49.39;92481.22;5053510;28;20049;-71
2024/02/12 11:23:34;;;;;;;18.75;2.88;;;;;;;9.47;49.97;92471.19;5053867;28;20375;-71
2024/02/12 11:25:59;;;;;;;16.88;2.60;;;;;;;9.46;50.07;92459.03;5053711;28;20402;-71
2024/02/12 11:28:29;;;;;;;18.15;2.28;;;;;;;9.56;49.24;92469.16;5053497;28;20037;-72
2024/02/12 11:30:55;;;;;;;18.90;4.00;;;;;;;9.52;49.58;92462.22;5053695;28;20139;-72
2024/02/12 11:33:24;;;;;;;15.68;2.78;;;;;;;9.45;48.45;92444.97;5053642;28;20452;-71
2024/02/12 11:35:50;;;;;;;9.82;1.50;;;;;;;9.67;48.56;92472.09;5053265;28;20079;-71
2024/02/12 11:38:17;;;;;;;10.63;1.80;;;;;;;9.53;48.59;92445.97;5053763;28;20018;-71
2024/02/12 11:40:42;;;;;;;12.98;1.83;;;;;;;9.64;48.96;92451.53;5053409;28;20029;-71
2024/02/12 11:43:08;;;;;;;15.60;2.33;;;;;;;9.66;48.13;92462.59;5053675;28;20530;-71
2024/02/12 11:45:36;;;;;;;11.80;1.80;;;;;;;9.62;47.83;92465.16;5052901;28;20041;-71
2024/02/12 11:48:11;;;;;;;10.40;2.10;;;;;;;9.69;48.21;92467.22;5053367;28;20025;-72